sensor_id;sensor_type;location;lat;lon;timestamp;P1;durP1;ratioP1;P2;durP2;ratioP2
74821;SDS011;63353;48.702;8.884;2023-06-19T00:02:27;19.00;;;17.40;;
74821;SDS011;63353;48.702;8.884;2023-06-19T00:04:55;18.30;;;16.70;;
74821;SDS011;63353;48.702;8.884;2023-06-19T00:07:21;18.33;;;16.83;;
74821;SDS011;63353;48.702;8.884;2023-06-19T00:09:47;19.17;;;17.57;;
74821;SDS011;63353;48.702;8.884;2023-06-19T00:12:15;18.67;;;17.17;;
74821;SDS011;63353;48.702;8.884;2023-06-19T00:14:41;18.73;;;17.13;;
74821;SDS011;63353;48.702;8.884;2023-06-19T00:17:10;18.50;;;17.00;;
74821;SDS011;63353;48.702;8.884;2023-06-19T00:19:39;18.50;;;17.17;;
74821;SDS011;63353;48.702;8.884;2023-06-19T00:22:07;19.47;;;17.80;;
74821;SDS011;63353;48.702;8.884;2023-06-19T00:24:33;18.70;;;17.20;;
74821;SDS011;63353;48.702;8.884;2023-06-19T00:26:59;19.37;;;17.90;;
74821;SDS011;63353;48.702;8.884;2023-06-19T00:29:29;19.33;;;17.70;;
74821;SDS011;63353;48.702;8.884;2023-06-19T00:31:55;19.13;;;17.73;;
74821;SDS011;63353;48.702;8.884;2023-06-19T00:34:23;18.00;;;16.50;;
74821;SDS011;63353;48.702;8.884;2023-06-19T00:36:53;18.60;;;17.03;;
74821;SDS011;63353;48.702;8.884;2023-06-19T00:39:25;17.40;;;16.00;;
74821;SDS011;63353;48.702;8.884;2023-06-19T00:41:52;17.57;;;16.07;;
74821;SDS011;63353;48.702;8.884;2023-06-19T00:44:18;18.33;;;16.67;;
74821;SDS011;63353;48.702;8.884;2023-06-19T00:46:47;18.70;;;17.23;;
74821;SDS011;63353;48.702;8.884;2023-06-19T00:49:28;17.50;;;16.20;;
74821;SDS011;63353;48.702;8.884;2023-06-19T00:51:55;16.57;;;15.30;;
74821;SDS011;63353;48.702;8.884;2023-06-19T00:54:21;17.27;;;15.87;;
74821;SDS011;63353;48.702;8.884;2023-06-19T00:56:47;17.90;;;16.27;;
74821;SDS011;63353;48.702;8.884;2023-06-19T00:59:26;16.90;;;15.27;;
74821;SDS011;63353;48.702;8.884;2023-06-19T01:01:54;17.07;;;15.57;;
74821;SDS011;63353;48.702;8.884;2023-06-19T01:04:21;14.70;;;13.50;;
74821;SDS011;63353;48.702;8.884;2023-06-19T01:06:54;14.97;;;13.80;;
74821;SDS011;63353;48.702;8.884;2023-06-19T01:09:25;15.50;;;14.33;;
74821;SDS011;63353;48.702;8.884;2023-06-19T01:11:57;15.80;;;14.70;;
74821;SDS011;63353;48.702;8.884;2023-06-19T01:14:47;16.37;;;15.17;;
74821;SDS011;63353;48.702;8.884;2023-06-19T01:17:20;14.37;;;13.17;;
74821;SDS011;63353;48.702;8.884;2023-06-19T01:19:47;13.93;;;12.73;;
74821;SDS011;63353;48.702;8.884;2023-06-19T01:22:22;14.03;;;12.83;;
74821;SDS011;63353;48.702;8.884;2023-06-19T01:24:53;13.27;;;12.27;;
74821;SDS011;63353;48.702;8.884;2023-06-19T01:27:19;12.43;;;11.53;;
74821;SDS011;63353;48.702;8.884;2023-06-19T01:29:52;11.73;;;10.87;;
74821;SDS011;63353;48.702;8.884;2023-06-19T01:32:20;11.67;;;10.77;;
74821;SDS011;63353;48.702;8.884;2023-06-19T01:34:52;11.80;;;10.90;;
74821;SDS011;63353;48.702;8.884;2023-06-19T01:37:31;11.47;;;10.47;;
74821;SDS011;63353;48.702;8.884;2023-06-19T01:39:58;11.43;;;10.50;;
74821;SDS011;63353;48.702;8.884;2023-06-19T01:42:27;11.43;;;10.53;;
74821;SDS011;63353;48.702;8.884;2023-06-19T01:44:53;12.63;;;11.73;;
74821;SDS011;63353;48.702;8.884;2023-06-19T01:47:19;11.77;;;10.77;;
74821;SDS011;63353;48.702;8.884;2023-06-19T01:49:46;11.97;;;11.07;;
74821;SDS011;63353;48.702;8.884;2023-06-19T01:52:12;11.80;;;10.90;;
74821;SDS011;63353;48.702;8.884;2023-06-19T01:54:38;11.93;;;11.13;;
74821;SDS011;63353;48.702;8.884;2023-06-19T01:57:07;11.93;;;11.13;;
74821;SDS011;63353;48.702;8.884;2023-06-19T01:59:36;12.27;;;11.37;;
74821;SDS011;63353;48.702;8.884;2023-06-19T02:02:02;12.53;;;11.63;;
74821;SDS011;63353;48.702;8.884;2023-06-19T02:04:31;12.43;;;11.43;;
74821;SDS011;63353;48.702;8.884;2023-06-19T02:06:57;12.40;;;11.50;;
74821;SDS011;63353;48.702;8.884;2023-06-19T02:09:23;11.93;;;11.13;;
74821;SDS011;63353;48.702;8.884;2023-06-19T02:11:48;11.60;;;10.80;;
74821;SDS011;63353;48.702;8.884;2023-06-19T02:14:14;11.23;;;10.53;;
74821;SDS011;63353;48.702;8.884;2023-06-19T02:16:40;11.43;;;10.73;;
74821;SDS011;63353;48.702;8.884;2023-06-19T02:19:11;10.40;;;9.80;;
74821;SDS011;63353;48.702;8.884;2023-06-19T02:21:37;11.20;;;10.40;;
74821;SDS011;63353;48.702;8.884;2023-06-19T02:24:07;11.10;;;10.40;;
74821;SDS011;63353;48.702;8.884;2023-06-19T02:26:32;11.50;;;10.80;;
74821;SDS011;63353;48.702;8.884;2023-06-19T02:28:58;11.63;;;10.93;;
74821;SDS011;63353;48.702;8.884;2023-06-19T02:31:24;11.53;;;10.80;;
74821;SDS011;63353;48.702;8.884;2023-06-19T02:33:50;9.97;;;9.37;;
74821;SDS011;63353;48.702;8.884;2023-06-19T02:36:18;10.50;;;9.80;;
74821;SDS011;63353;48.702;8.884;2023-06-19T02:38:47;10.30;;;9.60;;
74821;SDS011;63353;48.702;8.884;2023-06-19T02:41:14;11.10;;;10.40;;
74821;SDS011;63353;48.702;8.884;2023-06-19T02:43:43;11.13;;;10.33;;
74821;SDS011;63353;48.702;8.884;2023-06-19T02:46:15;11.70;;;10.93;;
74821;SDS011;63353;48.702;8.884;2023-06-19T02:48:41;10.40;;;9.70;;
74821;SDS011;63353;48.702;8.884;2023-06-19T02:51:07;11.87;;;10.97;;
74821;SDS011;63353;48.702;8.884;2023-06-19T02:53:32;11.60;;;11.00;;
74821;SDS011;63353;48.702;8.884;2023-06-19T02:55:58;10.90;;;10.30;;
74821;SDS011;63353;48.702;8.884;2023-06-19T02:58:27;10.30;;;9.70;;
74821;SDS011;63353;48.702;8.884;2023-06-19T03:00:58;9.57;;;9.07;;
74821;SDS011;63353;48.702;8.884;2023-06-19T03:03:24;10.30;;;9.70;;
74821;SDS011;63353;48.702;8.884;2023-06-19T03:05:49;10.40;;;9.80;;
74821;SDS011;63353;48.702;8.884;2023-06-19T03:08:18;8.10;;;7.60;;
74821;SDS011;63353;48.702;8.884;2023-06-19T03:10:47;8.33;;;7.83;;
74821;SDS011;63353;48.702;8.884;2023-06-19T03:13:13;8.77;;;8.10;;
74821;SDS011;63353;48.702;8.884;2023-06-19T03:15:42;7.80;;;7.30;;
74821;SDS011;63353;48.702;8.884;2023-06-19T03:18:07;9.13;;;8.63;;
74821;SDS011;63353;48.702;8.884;2023-06-19T03:20:35;10.23;;;9.63;;
74821;SDS011;63353;48.702;8.884;2023-06-19T03:23:04;10.33;;;9.73;;
74821;SDS011;63353;48.702;8.884;2023-06-19T03:25:35;10.00;;;9.23;;
74821;SDS011;63353;48.702;8.884;2023-06-19T03:28:01;11.23;;;10.53;;
74821;SDS011;63353;48.702;8.884;2023-06-19T03:30:30;9.73;;;9.07;;
74821;SDS011;63353;48.702;8.884;2023-06-19T03:33:02;10.10;;;9.50;;
74821;SDS011;63353;48.702;8.884;2023-06-19T03:35:31;10.77;;;10.07;;
74821;SDS011;63353;48.702;8.884;2023-06-19T03:37:59;10.67;;;10.07;;
74821;SDS011;63353;48.702;8.884;2023-06-19T03:40:25;11.80;;;11.07;;
74821;SDS011;63353;48.702;8.884;2023-06-19T03:42:59;11.80;;;11.07;;
74821;SDS011;63353;48.702;8.884;2023-06-19T03:45:25;11.90;;;11.20;;
74821;SDS011;63353;48.702;8.884;2023-06-19T03:47:54;15.27;;;14.37;;
74821;SDS011;63353;48.702;8.884;2023-06-19T03:50:19;14.70;;;13.80;;
74821;SDS011;63353;48.702;8.884;2023-06-19T03:52:48;13.80;;;12.87;;
74821;SDS011;63353;48.702;8.884;2023-06-19T03:55:14;8.83;;;8.23;;
74821;SDS011;63353;48.702;8.884;2023-06-19T03:57:42;9.47;;;8.77;;
74821;SDS011;63353;48.702;8.884;2023-06-19T04:00:11;9.60;;;8.80;;
74821;SDS011;63353;48.702;8.884;2023-06-19T04:02:38;10.30;;;9.60;;
74821;SDS011;63353;48.702;8.884;2023-06-19T04:05:05;11.47;;;10.77;;
74821;SDS011;63353;48.702;8.884;2023-06-19T04:07:34;11.33;;;10.43;;
74821;SDS011;63353;48.702;8.884;2023-06-19T04:10:01;12.73;;;11.93;;
74821;SDS011;63353;48.702;8.884;2023-06-19T04:12:27;14.43;;;13.23;;
74821;SDS011;63353;48.702;8.884;2023-06-19T04:14:53;12.83;;;12.00;;
74821;SDS011;63353;48.702;8.884;2023-06-19T04:17:18;10.60;;;9.97;;
74821;SDS011;63353;48.702;8.884;2023-06-19T04:19:44;10.73;;;10.07;;
74821;SDS011;63353;48.702;8.884;2023-06-19T04:22:10;12.67;;;11.90;;
74821;SDS011;63353;48.702;8.884;2023-06-19T04:24:35;14.20;;;13.37;;
74821;SDS011;63353;48.702;8.884;2023-06-19T04:27:01;14.60;;;13.70;;
74821;SDS011;63353;48.702;8.884;2023-06-19T04:29:27;11.90;;;11.10;;
74821;SDS011;63353;48.702;8.884;2023-06-19T04:32:09;11.97;;;11.27;;
74821;SDS011;63353;48.702;8.884;2023-06-19T04:34:53;12.20;;;11.30;;
74821;SDS011;63353;48.702;8.884;2023-06-19T04:37:22;14.33;;;13.37;;
74821;SDS011;63353;48.702;8.884;2023-06-19T04:39:48;13.60;;;12.80;;
74821;SDS011;63353;48.702;8.884;2023-06-19T04:42:13;17.87;;;16.80;;
74821;SDS011;63353;48.702;8.884;2023-06-19T04:44:45;19.73;;;18.63;;
74821;SDS011;63353;48.702;8.884;2023-06-19T04:47:12;17.90;;;17.00;;
74821;SDS011;63353;48.702;8.884;2023-06-19T04:49:37;16.87;;;15.87;;
74821;SDS011;63353;48.702;8.884;2023-06-19T04:52:03;15.77;;;14.87;;
74821;SDS011;63353;48.702;8.884;2023-06-19T04:54:29;12.07;;;11.27;;
74821;SDS011;63353;48.702;8.884;2023-06-19T04:56:57;12.50;;;11.83;;
74821;SDS011;63353;48.702;8.884;2023-06-19T04:59:23;11.37;;;10.60;;
74821;SDS011;63353;48.702;8.884;2023-06-19T05:01:49;13.27;;;12.50;;
74821;SDS011;63353;48.702;8.884;2023-06-19T05:04:14;10.63;;;9.93;;
74821;SDS011;63353;48.702;8.884;2023-06-19T05:06:40;11.40;;;10.73;;
74821;SDS011;63353;48.702;8.884;2023-06-19T05:09:07;11.73;;;11.03;;
74821;SDS011;63353;48.702;8.884;2023-06-19T05:11:33;12.40;;;11.60;;
74821;SDS011;63353;48.702;8.884;2023-06-19T05:13:58;13.67;;;12.87;;
74821;SDS011;63353;48.702;8.884;2023-06-19T05:16:24;14.10;;;13.40;;
74821;SDS011;63353;48.702;8.884;2023-06-19T05:18:50;14.80;;;13.90;;
74821;SDS011;63353;48.702;8.884;2023-06-19T05:21:16;14.33;;;13.47;;
74821;SDS011;63353;48.702;8.884;2023-06-19T05:23:42;13.33;;;12.53;;
74821;SDS011;63353;48.702;8.884;2023-06-19T05:26:07;13.10;;;12.33;;
74821;SDS011;63353;48.702;8.884;2023-06-19T05:28:33;12.47;;;11.67;;
74821;SDS011;63353;48.702;8.884;2023-06-19T05:30:59;13.87;;;13.07;;
74821;SDS011;63353;48.702;8.884;2023-06-19T05:33:25;12.43;;;11.67;;
74821;SDS011;63353;48.702;8.884;2023-06-19T05:35:50;9.10;;;8.50;;
74821;SDS011;63353;48.702;8.884;2023-06-19T05:38:24;13.83;;;13.07;;
74821;SDS011;63353;48.702;8.884;2023-06-19T05:40:51;10.50;;;9.90;;
74821;SDS011;63353;48.702;8.884;2023-06-19T05:43:17;11.90;;;11.20;;
74821;SDS011;63353;48.702;8.884;2023-06-19T05:45:44;9.60;;;8.97;;
74821;SDS011;63353;48.702;8.884;2023-06-19T05:48:18;9.20;;;8.60;;
74821;SDS011;63353;48.702;8.884;2023-06-19T05:50:44;9.93;;;9.33;;
74821;SDS011;63353;48.702;8.884;2023-06-19T05:53:12;10.33;;;9.60;;
74821;SDS011;63353;48.702;8.884;2023-06-19T05:55:41;10.70;;;10.00;;
74821;SDS011;63353;48.702;8.884;2023-06-19T05:58:07;11.70;;;11.00;;
74821;SDS011;63353;48.702;8.884;2023-06-19T06:00:33;10.70;;;10.10;;
74821;SDS011;63353;48.702;8.884;2023-06-19T06:03:07;11.27;;;10.57;;
74821;SDS011;63353;48.702;8.884;2023-06-19T06:05:33;12.90;;;12.17;;
74821;SDS011;63353;48.702;8.884;2023-06-19T06:08:01;12.67;;;11.97;;
74821;SDS011;63353;48.702;8.884;2023-06-19T06:10:27;15.50;;;14.60;;
74821;SDS011;63353;48.702;8.884;2023-06-19T06:12:55;14.60;;;13.73;;
74821;SDS011;63353;48.702;8.884;2023-06-19T06:15:24;14.87;;;13.97;;
74821;SDS011;63353;48.702;8.884;2023-06-19T06:17:59;15.30;;;14.40;;
74821;SDS011;63353;48.702;8.884;2023-06-19T06:20:25;13.00;;;12.20;;
74821;SDS011;63353;48.702;8.884;2023-06-19T06:23:03;17.47;;;16.47;;
74821;SDS011;63353;48.702;8.884;2023-06-19T06:25:29;13.50;;;12.60;;
74821;SDS011;63353;48.702;8.884;2023-06-19T06:27:57;12.27;;;11.47;;
74821;SDS011;63353;48.702;8.884;2023-06-19T06:30:29;12.50;;;11.70;;
74821;SDS011;63353;48.702;8.884;2023-06-19T06:32:58;11.10;;;10.40;;
74821;SDS011;63353;48.702;8.884;2023-06-19T06:35:26;11.97;;;11.27;;
74821;SDS011;63353;48.702;8.884;2023-06-19T06:37:58;10.87;;;10.17;;
74821;SDS011;63353;48.702;8.884;2023-06-19T06:40:23;11.07;;;10.43;;
74821;SDS011;63353;48.702;8.884;2023-06-19T06:42:58;10.53;;;9.77;;
74821;SDS011;63353;48.702;8.884;2023-06-19T06:45:23;10.53;;;9.90;;
74821;SDS011;63353;48.702;8.884;2023-06-19T06:47:49;11.47;;;10.60;;
74821;SDS011;63353;48.702;8.884;2023-06-19T06:53:42;13.37;;;12.57;;
74821;SDS011;63353;48.702;8.884;2023-06-19T06:56:11;12.37;;;11.67;;
74821;SDS011;63353;48.702;8.884;2023-06-19T06:58:42;12.13;;;11.47;;
74821;SDS011;63353;48.702;8.884;2023-06-19T07:01:14;11.93;;;11.23;;
74821;SDS011;63353;48.702;8.884;2023-06-19T07:03:48;10.20;;;9.60;;
74821;SDS011;63353;48.702;8.884;2023-06-19T07:06:26;9.43;;;8.83;;
74821;SDS011;63353;48.702;8.884;2023-06-19T07:08:55;10.63;;;9.97;;
74821;SDS011;63353;48.702;8.884;2023-06-19T07:11:26;9.17;;;8.67;;
74821;SDS011;63353;48.702;8.884;2023-06-19T07:13:55;9.00;;;8.50;;
74821;SDS011;63353;48.702;8.884;2023-06-19T07:16:30;10.50;;;9.73;;
74821;SDS011;63353;48.702;8.884;2023-06-19T07:18:56;9.30;;;8.70;;
74821;SDS011;63353;48.702;8.884;2023-06-19T07:21:28;9.27;;;8.73;;
74821;SDS011;63353;48.702;8.884;2023-06-19T07:23:59;11.30;;;10.60;;
74821;SDS011;63353;48.702;8.884;2023-06-19T07:32:33;8.87;;;8.37;;
74821;SDS011;63353;48.702;8.884;2023-06-19T07:34:58;8.53;;;8.03;;
74821;SDS011;63353;48.702;8.884;2023-06-19T07:37:27;9.10;;;8.60;;
74821;SDS011;63353;48.702;8.884;2023-06-19T07:39:53;10.63;;;10.07;;
74821;SDS011;63353;48.702;8.884;2023-06-19T07:42:30;8.47;;;7.87;;
74821;SDS011;63353;48.702;8.884;2023-06-19T07:44:59;8.33;;;7.90;;
74821;SDS011;63353;48.702;8.884;2023-06-19T07:47:40;9.20;;;8.70;;
74821;SDS011;63353;48.702;8.884;2023-06-19T07:50:05;9.03;;;8.53;;
74821;SDS011;63353;48.702;8.884;2023-06-19T07:52:31;8.73;;;8.23;;
74821;SDS011;63353;48.702;8.884;2023-06-19T07:54:58;9.17;;;8.67;;
74821;SDS011;63353;48.702;8.884;2023-06-19T08:07:30;8.67;;;8.10;;
74821;SDS011;63353;48.702;8.884;2023-06-19T08:10:02;9.30;;;8.77;;
74821;SDS011;63353;48.702;8.884;2023-06-19T08:12:37;8.77;;;8.27;;
74821;SDS011;63353;48.702;8.884;2023-06-19T08:15:06;8.80;;;8.30;;
74821;SDS011;63353;48.702;8.884;2023-06-19T08:17:44;9.47;;;8.97;;
74821;SDS011;63353;48.702;8.884;2023-06-19T08:20:10;8.40;;;7.80;;
74821;SDS011;63353;48.702;8.884;2023-06-19T08:22:39;9.80;;;9.03;;
74821;SDS011;63353;48.702;8.884;2023-06-19T08:25:04;9.33;;;8.80;;
74821;SDS011;63353;48.702;8.884;2023-06-19T08:27:31;9.13;;;8.70;;
74821;SDS011;63353;48.702;8.884;2023-06-19T08:29:56;9.60;;;8.87;;
74821;SDS011;63353;48.702;8.884;2023-06-19T08:32:22;8.93;;;8.43;;
74821;SDS011;63353;48.702;8.884;2023-06-19T08:34:53;9.47;;;8.97;;
74821;SDS011;63353;48.702;8.884;2023-06-19T08:37:25;7.70;;;7.23;;
74821;SDS011;63353;48.702;8.884;2023-06-19T08:39:54;7.20;;;6.80;;
74821;SDS011;63353;48.702;8.884;2023-06-19T08:42:21;7.47;;;6.97;;
74821;SDS011;63353;48.702;8.884;2023-06-19T08:44:48;10.23;;;9.60;;
74821;SDS011;63353;48.702;8.884;2023-06-19T08:47:20;7.25;;;6.75;;
74821;SDS011;63353;48.702;8.884;2023-06-19T08:49:46;8.02;;;7.53;;
74821;SDS011;63353;48.702;8.884;2023-06-19T08:52:17;7.55;;;7.15;;
74821;SDS011;63353;48.702;8.884;2023-06-19T08:54:46;11.13;;;10.63;;
74821;SDS011;63353;48.702;8.884;2023-06-19T08:57:17;8.13;;;7.68;;
74821;SDS011;63353;48.702;8.884;2023-06-19T08:59:52;7.03;;;6.63;;
74821;SDS011;63353;48.702;8.884;2023-06-19T09:02:21;13.02;;;12.45;;
74821;SDS011;63353;48.702;8.884;2023-06-19T09:04:52;10.15;;;9.70;;
74821;SDS011;63353;48.702;8.884;2023-06-19T09:07:20;8.55;;;8.05;;
74821;SDS011;63353;48.702;8.884;2023-06-19T09:09:49;7.88;;;7.53;;
74821;SDS011;63353;48.702;8.884;2023-06-19T09:12:15;6.60;;;6.30;;
74821;SDS011;63353;48.702;8.884;2023-06-19T09:14:44;6.30;;;6.00;;
74821;SDS011;63353;48.702;8.884;2023-06-19T09:17:11;6.68;;;6.38;;
74821;SDS011;63353;48.702;8.884;2023-06-19T09:19:53;6.75;;;6.45;;
74821;SDS011;63353;48.702;8.884;2023-06-19T09:22:25;6.85;;;6.55;;
74821;SDS011;63353;48.702;8.884;2023-06-19T09:24:59;6.50;;;6.20;;
74821;SDS011;63353;48.702;8.884;2023-06-19T09:27:31;6.68;;;6.38;;
74821;SDS011;63353;48.702;8.884;2023-06-19T09:30:14;6.28;;;5.93;;
74821;SDS011;63353;48.702;8.884;2023-06-19T09:32:40;5.75;;;5.47;;
74821;SDS011;63353;48.702;8.884;2023-06-19T09:35:12;7.38;;;6.97;;
74821;SDS011;63353;48.702;8.884;2023-06-19T09:37:38;9.82;;;9.23;;
74821;SDS011;63353;48.702;8.884;2023-06-19T09:40:12;10.18;;;9.68;;
74821;SDS011;63353;48.702;8.884;2023-06-19T09:42:39;10.45;;;9.77;;
74821;SDS011;63353;48.702;8.884;2023-06-19T09:45:09;9.85;;;9.25;;
74821;SDS011;63353;48.702;8.884;2023-06-19T09:47:42;9.57;;;8.98;;
74821;SDS011;63353;48.702;8.884;2023-06-19T09:50:11;9.85;;;9.25;;
74821;SDS011;63353;48.702;8.884;2023-06-19T09:52:39;10.93;;;10.32;;
74821;SDS011;63353;48.702;8.884;2023-06-19T09:55:07;11.27;;;10.68;;
74821;SDS011;63353;48.702;8.884;2023-06-19T09:57:34;9.60;;;9.00;;
74821;SDS011;63353;48.702;8.884;2023-06-19T10:00:00;9.57;;;8.98;;
74821;SDS011;63353;48.702;8.884;2023-06-19T10:02:39;8.95;;;8.45;;
74821;SDS011;63353;48.702;8.884;2023-06-19T10:05:09;9.20;;;8.60;;
74821;SDS011;63353;48.702;8.884;2023-06-19T10:07:44;9.75;;;9.15;;
74821;SDS011;63353;48.702;8.884;2023-06-19T10:10:24;9.82;;;9.23;;
74821;SDS011;63353;48.702;8.884;2023-06-19T10:12:53;9.65;;;9.05;;
74821;SDS011;63353;48.702;8.884;2023-06-19T10:15:22;9.60;;;9.00;;
74821;SDS011;63353;48.702;8.884;2023-06-19T10:18:05;11.80;;;11.20;;
74821;SDS011;63353;48.702;8.884;2023-06-19T10:20:32;10.27;;;9.68;;
74821;SDS011;63353;48.702;8.884;2023-06-19T10:25:43;9.88;;;9.35;;
74821;SDS011;63353;48.702;8.884;2023-06-19T10:28:17;9.38;;;8.88;;
74821;SDS011;63353;48.702;8.884;2023-06-19T10:30:59;12.10;;;11.35;;
74821;SDS011;63353;48.702;8.884;2023-06-19T10:33:31;10.77;;;10.18;;
74821;SDS011;63353;48.702;8.884;2023-06-19T10:35:58;10.90;;;10.30;;
74821;SDS011;63353;48.702;8.884;2023-06-19T10:38:28;15.88;;;15.02;;
74821;SDS011;63353;48.702;8.884;2023-06-19T10:40:57;9.40;;;8.88;;
74821;SDS011;63353;48.702;8.884;2023-06-19T10:43:29;9.30;;;8.80;;
74821;SDS011;63353;48.702;8.884;2023-06-19T10:46:02;10.70;;;10.10;;
74821;SDS011;63353;48.702;8.884;2023-06-19T10:48:29;11.93;;;11.32;;
74821;SDS011;63353;48.702;8.884;2023-06-19T10:50:55;12.18;;;11.57;;
74821;SDS011;63353;48.702;8.884;2023-06-19T10:55:59;11.50;;;10.90;;
74821;SDS011;63353;48.702;8.884;2023-06-19T10:58:26;11.38;;;10.88;;
74821;SDS011;63353;48.702;8.884;2023-06-19T11:00:53;8.70;;;8.30;;
74821;SDS011;63353;48.702;8.884;2023-06-19T11:03:28;8.82;;;8.32;;
74821;SDS011;63353;48.702;8.884;2023-06-19T11:05:59;9.52;;;9.02;;
74821;SDS011;63353;48.702;8.884;2023-06-19T11:08:28;9.68;;;9.18;;
74821;SDS011;63353;48.702;8.884;2023-06-19T11:10:53;9.27;;;8.77;;
74821;SDS011;63353;48.702;8.884;2023-06-19T11:13:23;8.73;;;8.23;;
74821;SDS011;63353;48.702;8.884;2023-06-19T11:15:55;9.35;;;8.85;;
74821;SDS011;63353;48.702;8.884;2023-06-19T11:18:29;9.50;;;8.88;;
74821;SDS011;63353;48.702;8.884;2023-06-19T11:20:55;9.57;;;8.98;;
74821;SDS011;63353;48.702;8.884;2023-06-19T11:23:28;10.27;;;9.77;;
74821;SDS011;63353;48.702;8.884;2023-06-19T11:26:01;10.50;;;9.93;;
74821;SDS011;63353;48.702;8.884;2023-06-19T11:28:28;9.77;;;9.18;;
74821;SDS011;63353;48.702;8.884;2023-06-19T11:31:03;10.70;;;10.00;;
74821;SDS011;63353;48.702;8.884;2023-06-19T11:33:29;10.77;;;10.25;;
74821;SDS011;63353;48.702;8.884;2023-06-19T11:36:07;13.50;;;12.80;;
74821;SDS011;63353;48.702;8.884;2023-06-19T11:38:33;13.02;;;12.32;;
74821;SDS011;63353;48.702;8.884;2023-06-19T11:41:01;13.82;;;13.15;;
74821;SDS011;63353;48.702;8.884;2023-06-19T11:43:34;14.40;;;13.70;;
74821;SDS011;63353;48.702;8.884;2023-06-19T11:46:06;13.40;;;12.70;;
74821;SDS011;63353;48.702;8.884;2023-06-19T11:48:35;14.70;;;13.90;;
74821;SDS011;63353;48.702;8.884;2023-06-19T11:51:05;13.18;;;12.38;;
74821;SDS011;63353;48.702;8.884;2023-06-19T11:53:31;12.77;;;12.10;;
74821;SDS011;63353;48.702;8.884;2023-06-19T11:55:57;11.18;;;10.48;;
74821;SDS011;63353;48.702;8.884;2023-06-19T11:58:32;13.48;;;12.80;;
74821;SDS011;63353;48.702;8.884;2023-06-19T12:01:00;11.63;;;11.02;;
74821;SDS011;63353;48.702;8.884;2023-06-19T12:03:27;11.35;;;10.75;;
74821;SDS011;63353;48.702;8.884;2023-06-19T12:05:56;13.45;;;12.75;;
74821;SDS011;63353;48.702;8.884;2023-06-19T12:08:21;11.02;;;10.43;;
74821;SDS011;63353;48.702;8.884;2023-06-19T12:10:53;11.68;;;10.98;;
74821;SDS011;63353;48.702;8.884;2023-06-19T12:13:22;11.75;;;10.95;;
74821;SDS011;63353;48.702;8.884;2023-06-19T12:15:51;10.32;;;9.77;;
74821;SDS011;63353;48.702;8.884;2023-06-19T12:18:22;10.45;;;9.73;;
74821;SDS011;63353;48.702;8.884;2023-06-19T12:20:51;10.07;;;9.48;;
74821;SDS011;63353;48.702;8.884;2023-06-19T12:23:16;11.80;;;11.10;;
74821;SDS011;63353;48.702;8.884;2023-06-19T12:25:42;10.32;;;9.68;;
74821;SDS011;63353;48.702;8.884;2023-06-19T12:28:08;10.80;;;10.20;;
74821;SDS011;63353;48.702;8.884;2023-06-19T12:30:34;11.13;;;10.55;;
74821;SDS011;63353;48.702;8.884;2023-06-19T12:33:01;12.07;;;11.27;;
74821;SDS011;63353;48.702;8.884;2023-06-19T12:35:28;12.80;;;12.10;;
74821;SDS011;63353;48.702;8.884;2023-06-19T12:37:54;12.98;;;12.23;;
74821;SDS011;63353;48.702;8.884;2023-06-19T12:40:20;12.65;;;12.05;;
74821;SDS011;63353;48.702;8.884;2023-06-19T12:42:46;14.40;;;13.70;;
74821;SDS011;63353;48.702;8.884;2023-06-19T12:45:11;14.73;;;13.93;;
74821;SDS011;63353;48.702;8.884;2023-06-19T12:47:43;14.55;;;13.75;;
74821;SDS011;63353;48.702;8.884;2023-06-19T12:50:15;13.88;;;13.18;;
74821;SDS011;63353;48.702;8.884;2023-06-19T12:52:50;14.77;;;13.88;;
74821;SDS011;63353;48.702;8.884;2023-06-19T12:55:22;15.48;;;14.48;;
74821;SDS011;63353;48.702;8.884;2023-06-19T12:57:48;15.05;;;14.15;;
74821;SDS011;63353;48.702;8.884;2023-06-19T13:00:22;15.57;;;14.68;;
74821;SDS011;63353;48.702;8.884;2023-06-19T13:02:48;15.35;;;14.32;;
74821;SDS011;63353;48.702;8.884;2023-06-19T13:05:16;17.02;;;16.17;;
74821;SDS011;63353;48.702;8.884;2023-06-19T13:07:42;15.57;;;14.77;;
74821;SDS011;63353;48.702;8.884;2023-06-19T13:10:08;15.63;;;14.63;;
74821;SDS011;63353;48.702;8.884;2023-06-19T13:12:34;15.07;;;14.18;;
74821;SDS011;63353;48.702;8.884;2023-06-19T13:15:05;15.73;;;14.93;;
74821;SDS011;63353;48.702;8.884;2023-06-19T13:17:31;15.75;;;14.95;;
74821;SDS011;63353;48.702;8.884;2023-06-19T13:20:03;17.23;;;16.33;;
74821;SDS011;63353;48.702;8.884;2023-06-19T13:22:39;16.15;;;15.35;;
74821;SDS011;63353;48.702;8.884;2023-06-19T13:25:04;14.55;;;13.85;;
74821;SDS011;63353;48.702;8.884;2023-06-19T13:27:30;14.93;;;14.13;;
74821;SDS011;63353;48.702;8.884;2023-06-19T13:29:56;14.65;;;13.95;;
74821;SDS011;63353;48.702;8.884;2023-06-19T13:32:31;14.18;;;13.38;;
74821;SDS011;63353;48.702;8.884;2023-06-19T13:34:57;14.68;;;13.88;;
74821;SDS011;63353;48.702;8.884;2023-06-19T13:37:23;10.13;;;9.43;;
74821;SDS011;63353;48.702;8.884;2023-06-19T13:39:48;11.50;;;10.80;;
74821;SDS011;63353;48.702;8.884;2023-06-19T13:42:17;8.90;;;8.18;;
74821;SDS011;63353;48.702;8.884;2023-06-19T13:44:43;9.68;;;9.07;;
74821;SDS011;63353;48.702;8.884;2023-06-19T13:47:08;10.05;;;9.38;;
74821;SDS011;63353;48.702;8.884;2023-06-19T13:49:37;10.82;;;10.13;;
74821;SDS011;63353;48.702;8.884;2023-06-19T13:52:18;11.55;;;10.93;;
74821;SDS011;63353;48.702;8.884;2023-06-19T13:54:47;12.23;;;11.52;;
74821;SDS011;63353;48.702;8.884;2023-06-19T13:57:18;13.93;;;13.15;;
74821;SDS011;63353;48.702;8.884;2023-06-19T13:59:45;14.40;;;13.50;;
74821;SDS011;63353;48.702;8.884;2023-06-19T14:02:14;13.73;;;12.93;;
74821;SDS011;63353;48.702;8.884;2023-06-19T14:04:39;12.95;;;12.20;;
74821;SDS011;63353;48.702;8.884;2023-06-19T14:07:11;12.30;;;11.70;;
74821;SDS011;63353;48.702;8.884;2023-06-19T14:09:45;13.07;;;12.27;;
74821;SDS011;63353;48.702;8.884;2023-06-19T14:12:13;12.02;;;11.43;;
74821;SDS011;63353;48.702;8.884;2023-06-19T14:14:39;13.88;;;12.93;;
74821;SDS011;63353;48.702;8.884;2023-06-19T14:17:11;12.18;;;11.57;;
74821;SDS011;63353;48.702;8.884;2023-06-19T14:19:36;12.70;;;12.05;;
74821;SDS011;63353;48.702;8.884;2023-06-19T14:22:02;13.32;;;12.52;;
74821;SDS011;63353;48.702;8.884;2023-06-19T14:24:28;13.05;;;12.32;;
74821;SDS011;63353;48.702;8.884;2023-06-19T14:26:56;12.35;;;11.65;;
74821;SDS011;63353;48.702;8.884;2023-06-19T14:29:22;13.05;;;12.35;;
74821;SDS011;63353;48.702;8.884;2023-06-19T14:31:54;11.98;;;11.30;;
74821;SDS011;63353;48.702;8.884;2023-06-19T14:34:31;12.48;;;11.88;;
74821;SDS011;63353;48.702;8.884;2023-06-19T14:37:03;12.30;;;11.60;;
74821;SDS011;63353;48.702;8.884;2023-06-19T14:39:29;12.07;;;11.48;;
74821;SDS011;63353;48.702;8.884;2023-06-19T14:42:00;11.65;;;11.05;;
74821;SDS011;63353;48.702;8.884;2023-06-19T14:44:32;9.95;;;9.40;;
74821;SDS011;63353;48.702;8.884;2023-06-19T14:46:58;9.90;;;9.40;;
74821;SDS011;63353;48.702;8.884;2023-06-19T14:49:24;10.18;;;9.60;;
74821;SDS011;63353;48.702;8.884;2023-06-19T14:51:49;10.13;;;9.63;;
74821;SDS011;63353;48.702;8.884;2023-06-19T14:54:15;10.63;;;10.13;;
74821;SDS011;63353;48.702;8.884;2023-06-19T14:56:43;9.35;;;8.85;;
74821;SDS011;63353;48.702;8.884;2023-06-19T14:59:09;9.98;;;9.27;;
74821;SDS011;63353;48.702;8.884;2023-06-19T15:01:41;9.57;;;9.07;;
74821;SDS011;63353;48.702;8.884;2023-06-19T15:04:06;9.65;;;9.15;;
74821;SDS011;63353;48.702;8.884;2023-06-19T15:06:32;10.57;;;9.98;;